Time;durP1;ratioP1;P1;durP2;ratioP2;P2;SDS_P1;SDS_P2;PMS_P1;PMS_P2;Temp;Humidity;BMP_temperature;BMP_pressure;BME280_temperature;BME280_humidity;BME280_pressure;Samples;Min_cycle;Max_cycle;Signal;HPM_P1;HPM_P2
2022/04/14 00:00:46;;;;;;;;;;;8.80;99.90;;;;;;5051457;28;19909;-74
2022/04/14 00:03:13;;;;;;;;;;;8.90;99.90;;;;;;5049923;28;19955;-74
2022/04/14 00:05:39;;;;;;;;;;;9.20;99.90;;;;;;5051357;28;20370;-75
2022/04/14 00:08:04;;;;;;;;;;;9.00;99.90;;;;;;5051378;28;19908;-74
2022/04/14 00:10:30;;;;;;;;;;;8.70;99.90;;;;;;5051121;28;19916;-74
2022/04/14 00:12:55;;;;;;;;;;;8.70;99.90;;;;;;5044798;28;19909;-75
2022/04/14 00:15:21;;;;;;;;;;;8.70;99.90;;;;;;5049643;28;19915;-74
2022/04/14 00:17:46;;;;;;;;;;;9.00;99.90;;;;;;5050974;28;19916;-75
2022/04/14 00:20:12;;;;;;;;;;;9.20;99.90;;;;;;5051012;28;20610;-74
2022/04/14 00:22:37;;;;;;;;;;;9.40;99.90;;;;;;5051271;28;19913;-75
2022/04/14 00:25:04;;;;;;;;;;;9.40;99.90;;;;;;5050717;28;19967;-75
2022/04/14 00:27:29;;;;;;;;;;;9.50;99.90;;;;;;5051103;28;19913;-74
2022/04/14 00:29:55;;;;;;;;;;;9.20;99.90;;;;;;5051084;28;19913;-75
2022/04/14 00:32:20;;;;;;;;;;;8.90;99.90;;;;;;5051017;28;19909;-75
2022/04/14 00:34:45;;;;;;;;;;;8.60;99.90;;;;;;5050757;28;19960;-74
2022/04/14 00:37:11;;;;;;;;;;;8.50;99.90;;;;;;5051091;28;19915;-75
2022/04/14 00:39:37;;;;;;;;;;;8.20;99.90;;;;;;5050844;28;19916;-75
2022/04/14 00:42:09;;;;;;;;;;;8.20;99.90;;;;;;5050765;28;20285;-74
2022/04/14 00:44:35;;;;;;;;;;;8.30;99.90;;;;;;5050610;28;19924;-74
2022/04/14 00:47:00;;;;;;;;;;;8.40;99.90;;;;;;5050935;28;19908;-75
2022/04/14 00:49:26;;;;;;;;;;;8.30;99.90;;;;;;5050571;28;20027;-74
2022/04/14 00:51:51;;;;;;;;;;;8.30;99.90;;;;;;5054686;28;19909;-74
2022/04/14 00:54:17;;;;;;;;;;;8.20;99.90;;;;;;5055129;28;19913;-74
2022/04/14 00:56:42;;;;;;;;;;;8.10;99.90;;;;;;5052357;28;20351;-74
2022/04/14 00:59:08;;;;;;;;;;;8.00;99.90;;;;;;5054729;28;20011;-74
2022/04/14 01:01:33;;;;;;;;;;;8.20;99.90;;;;;;5054696;28;19916;-74
2022/04/14 01:03:59;;;;;;;;;;;8.10;99.90;;;;;;5054502;28;19908;-74
2022/04/14 01:06:25;;;;;;;;;;;8.20;99.90;;;;;;5053577;28;19909;-74
2022/04/14 01:11:35;;;;;;;;;;;8.30;99.90;;;;;;5054364;28;19920;-75
2022/04/14 01:14:01;;;;;;;;;;;8.40;99.90;;;;;;5054305;28;19909;-75
2022/04/14 01:16:26;;;;;;;;;;;8.50;99.90;;;;;;5054668;28;20281;-73
2022/04/14 01:18:52;;;;;;;;;;;8.70;99.90;;;;;;5053069;28;19917;-73
2022/04/14 01:21:18;;;;;;;;;;;8.80;99.90;;;;;;5054078;28;20273;-73
2022/04/14 01:23:44;;;;;;;;;;;8.90;99.90;;;;;;5054285;28;19909;-73
2022/04/14 01:26:10;;;;;;;;;;;8.90;99.90;;;;;;5053351;28;20034;-73
2022/04/14 01:28:36;;;;;;;;;;;9.00;99.90;;;;;;5054188;28;19928;-73
2022/04/14 01:31:01;;;;;;;;;;;9.00;99.90;;;;;;5054166;28;19913;-73
2022/04/14 01:33:27;;;;;;;;;;;9.20;99.90;;;;;;5054350;28;20246;-73
2022/04/14 01:35:52;;;;;;;;;;;9.30;99.90;;;;;;5049278;28;19975;-73
2022/04/14 01:38:18;;;;;;;;;;;9.40;99.90;;;;;;5054194;28;19915;-73
2022/04/14 01:40:43;;;;;;;;;;;9.70;99.90;;;;;;5055153;28;19909;-73
2022/04/14 01:43:08;;;;;;;;;;;9.80;99.90;;;;;;5054895;28;19909;-73
2022/04/14 01:45:34;;;;;;;;;;;9.60;99.90;;;;;;5054150;28;20011;-73
2022/04/14 01:47:59;;;;;;;;;;;9.20;99.90;;;;;;5053824;28;19932;-73
2022/04/14 01:50:25;;;;;;;;;;;8.90;99.90;;;;;;5054392;28;19920;-73
2022/04/14 01:52:50;;;;;;;;;;;9.40;99.90;;;;;;5055261;28;20008;-73
2022/04/14 01:55:16;;;;;;;;;;;9.50;99.90;;;;;;5054175;28;20262;-73
2022/04/14 01:57:41;;;;;;;;;;;9.50;99.90;;;;;;5050611;28;20362;-73
2022/04/14 02:00:08;;;;;;;;;;;9.20;99.90;;;;;;5056820;28;19920;-73
2022/04/14 02:02:33;;;;;;;;;;;8.70;99.90;;;;;;5054527;28;20480;-72
2022/04/14 02:04:59;;;;;;;;;;;8.60;99.90;;;;;;5054171;28;19912;-73
2022/04/14 02:07:24;;;;;;;;;;;9.00;99.90;;;;;;5054283;28;20982;-73
2022/04/14 02:09:50;;;;;;;;;;;8.90;99.90;;;;;;5053665;28;19959;-73
2022/04/14 02:12:15;;;;;;;;;;;9.20;99.90;;;;;;5053602;28;20326;-73
2022/04/14 02:14:41;;;;;;;;;;;9.50;99.90;;;;;;5053052;28;20320;-73
2022/04/14 02:17:07;;;;;;;;;;;9.40;99.90;;;;;;5053376;28;19912;-73
2022/04/14 02:19:32;;;;;;;;;;;9.70;99.90;;;;;;5049343;28;19936;-72
2022/04/14 02:21:58;;;;;;;;;;;9.70;99.90;;;;;;5055691;28;19912;-73
2022/04/14 02:24:25;;;;;;;;;;;9.60;99.90;;;;;;5053370;28;19966;-73
2022/04/14 02:26:50;;;;;;;;;;;9.80;99.90;;;;;;5053574;28;19936;-73
2022/04/14 02:29:16;;;;;;;;;;;10.00;99.90;;;;;;5053629;28;20369;-73
2022/04/14 02:31:41;;;;;;;;;;;10.00;99.90;;;;;;5053057;28;19909;-73
2022/04/14 02:34:07;;;;;;;;;;;9.80;99.90;;;;;;5053652;28;20031;-73
2022/04/14 02:36:32;;;;;;;;;;;9.80;99.90;;;;;;5049778;28;19932;-73
2022/04/14 02:38:58;;;;;;;;;;;9.70;99.90;;;;;;5053247;28;19916;-73
2022/04/14 02:41:23;;;;;;;;;;;9.70;99.90;;;;;;5048772;28;19916;-73
2022/04/14 02:43:49;;;;;;;;;;;9.70;99.90;;;;;;5052773;28;19908;-73
2022/04/14 02:46:15;;;;;;;;;;;9.50;99.90;;;;;;5053007;28;20277;-73
2022/04/14 02:48:41;;;;;;;;;;;9.60;99.90;;;;;;5052960;28;19909;-73
2022/04/14 02:51:06;;;;;;;;;;;9.60;99.90;;;;;;5052800;28;19924;-73
2022/04/14 02:53:32;;;;;;;;;;;9.60;99.90;;;;;;5052711;28;19919;-72
2022/04/14 02:55:58;;;;;;;;;;;9.70;99.90;;;;;;5053123;28;19952;-73
2022/04/14 02:58:23;;;;;;;;;;;9.70;99.90;;;;;;5052937;28;20349;-72
2022/04/14 03:00:49;;;;;;;;;;;9.60;99.90;;;;;;5046749;28;19915;-72
2022/04/14 03:03:15;;;;;;;;;;;9.20;99.90;;;;;;5055048;28;19909;-72
2022/04/14 03:05:41;;;;;;;;;;;9.00;99.90;;;;;;5052772;28;19908;-73
2022/04/14 03:08:06;;;;;;;;;;;8.80;99.90;;;;;;5052749;28;20426;-73
2022/04/14 03:10:32;;;;;;;;;;;8.80;99.90;;;;;;5052463;28;19912;-72
2022/04/14 03:12:57;;;;;;;;;;;8.90;99.90;;;;;;5052181;28;19962;-73
2022/04/14 03:15:23;;;;;;;;;;;8.90;99.90;;;;;;5052306;28;20273;-73
2022/04/14 03:17:50;;;;;;;;;;;9.20;99.90;;;;;;5052434;28;19916;-73
2022/04/14 03:20:16;;;;;;;;;;;9.40;99.90;;;;;;5052362;28;19919;-73
2022/04/14 03:22:41;;;;;;;;;;;9.60;99.90;;;;;;5052263;28;20007;-73
2022/04/14 03:25:08;;;;;;;;;;;9.70;99.90;;;;;;5052222;28;19999;-73
2022/04/14 03:27:34;;;;;;;;;;;10.40;99.90;;;;;;5052189;28;19913;-73
2022/04/14 03:29:59;;;;;;;;;;;10.20;99.90;;;;;;5049337;28;19913;-73
2022/04/14 03:32:25;;;;;;;;;;;10.20;99.90;;;;;;5051512;28;20007;-73
2022/04/14 03:34:51;;;;;;;;;;;10.30;99.90;;;;;;5051806;28;19999;-73
2022/04/14 03:37:16;;;;;;;;;;;10.40;99.90;;;;;;5047319;28;19909;-73
2022/04/14 03:39:42;;;;;;;;;;;10.40;99.90;;;;;;5051889;28;20263;-73
2022/04/14 03:42:08;;;;;;;;;;;10.00;99.90;;;;;;5051997;28;19909;-73
2022/04/14 03:44:33;;;;;;;;;;;10.20;99.90;;;;;;5051646;28;20007;-73
2022/04/14 03:46:58;;;;;;;;;;;10.00;99.90;;;;;;5052413;28;19916;-73
2022/04/14 03:49:24;;;;;;;;;;;9.80;99.90;;;;;;5051689;28;19963;-73
2022/04/14 03:51:52;;;;;;;;;;;9.70;99.90;;;;;;5050285;28;19909;-73
2022/04/14 03:54:17;;;;;;;;;;;9.90;99.90;;;;;;5051532;28;19913;-73
2022/04/14 03:56:46;;;;;;;;;;;9.90;99.90;;;;;;5051647;28;20329;-73
2022/04/14 03:59:13;;;;;;;;;;;10.00;99.90;;;;;;5051679;28;19976;-73
2022/04/14 04:01:39;;;;;;;;;;;9.90;99.90;;;;;;5051438;28;19908;-73
2022/04/14 04:04:04;;;;;;;;;;;9.80;99.90;;;;;;5051437;28;19962;-73
2022/04/14 04:06:29;;;;;;;;;;;9.60;99.90;;;;;;5045427;28;19948;-73
2022/04/14 04:08:55;;;;;;;;;;;9.30;99.90;;;;;;5051170;28;19909;-73
2022/04/14 04:11:20;;;;;;;;;;;9.20;99.90;;;;;;5051120;28;19959;-73
2022/04/14 04:13:46;;;;;;;;;;;9.30;99.90;;;;;;5048827;28;19909;-73
2022/04/14 04:16:11;;;;;;;;;;;9.30;99.90;;;;;;5051824;28;19932;-73
2022/04/14 04:18:37;;;;;;;;;;;9.30;99.90;;;;;;5051283;28;19947;-73
2022/04/14 04:21:02;;;;;;;;;;;9.20;99.90;;;;;;5050239;28;19913;-72
2022/04/14 04:23:28;;;;;;;;;;;9.60;99.90;;;;;;5055431;28;19908;-72
2022/04/14 04:25:53;;;;;;;;;;;9.50;99.90;;;;;;5044285;28;19917;-72
2022/04/14 04:28:19;;;;;;;;;;;9.80;99.90;;;;;;5051228;28;19908;-72
2022/04/14 04:30:44;;;;;;;;;;;9.80;99.90;;;;;;5051206;28;20015;-73
2022/04/14 04:33:10;;;;;;;;;;;9.50;99.90;;;;;;5050656;28;19936;-73
2022/04/14 04:35:35;;;;;;;;;;;9.20;99.90;;;;;;5049710;28;20315;-73
2022/04/14 04:38:01;;;;;;;;;;;8.70;99.90;;;;;;5049819;28;20433;-72
2022/04/14 04:40:26;;;;;;;;;;;8.50;99.90;;;;;;5051021;28;20362;-72
2022/04/14 04:42:52;;;;;;;;;;;8.50;99.90;;;;;;5050800;28;19988;-72
2022/04/14 04:45:17;;;;;;;;;;;8.50;99.90;;;;;;5050906;28;20274;-73
2022/04/14 04:47:42;;;;;;;;;;;8.30;99.90;;;;;;5050913;28;19912;-72
2022/04/14 04:50:08;;;;;;;;;;;8.20;99.90;;;;;;5049748;28;20007;-72
2022/04/14 04:52:34;;;;;;;;;;;8.30;99.90;;;;;;5050760;28;19915;-72
2022/04/14 04:55:00;;;;;;;;;;;8.30;99.90;;;;;;5050957;28;19915;-73
2022/04/14 04:57:25;;;;;;;;;;;8.50;99.90;;;;;;5050852;28;19909;-72
2022/04/14 04:59:51;;;;;;;;;;;8.40;99.90;;;;;;5051420;28;20357;-72
2022/04/14 05:02:16;;;;;;;;;;;8.30;99.90;;;;;;5046368;28;19919;-72
2022/04/14 05:04:42;;;;;;;;;;;8.00;99.90;;;;;;5050480;28;19913;-72
2022/04/14 05:07:07;;;;;;;;;;;8.00;99.90;;;;;;5050886;28;20275;-73
2022/04/14 05:09:34;;;;;;;;;;;8.00;99.90;;;;;;5049733;28;19909;-73
2022/04/14 05:11:59;;;;;;;;;;;8.10;99.90;;;;;;5050565;28;19909;-73
2022/04/14 05:14:25;;;;;;;;;;;8.30;99.90;;;;;;5050667;28;19916;-73
2022/04/14 05:16:50;;;;;;;;;;;8.30;99.90;;;;;;5050477;28;19916;-73
2022/04/14 05:19:16;;;;;;;;;;;8.20;99.90;;;;;;5051106;28;19909;-73
2022/04/14 05:21:41;;;;;;;;;;;8.10;99.90;;;;;;5050835;28;19909;-72
2022/04/14 05:24:07;;;;;;;;;;;8.20;99.90;;;;;;5050590;28;19909;-73
2022/04/14 05:26:32;;;;;;;;;;;8.40;99.90;;;;;;5050751;28;20007;-73
2022/04/14 05:28:58;;;;;;;;;;;8.50;99.90;;;;;;5050620;28;19917;-73
2022/04/14 05:31:23;;;;;;;;;;;8.70;99.90;;;;;;5050323;28;19913;-73
2022/04/14 05:33:49;;;;;;;;;;;8.80;99.90;;;;;;5050317;28;19935;-73
2022/04/14 05:36:14;;;;;;;;;;;9.00;99.90;;;;;;5050701;28;19912;-73
2022/04/14 05:38:40;;;;;;;;;;;9.20;99.90;;;;;;5054142;28;20034;-73
2022/04/14 05:41:06;;;;;;;;;;;9.30;99.90;;;;;;5054324;28;19916;-73
2022/04/14 05:43:31;;;;;;;;;;;9.40;99.90;;;;;;5050847;28;19909;-73
2022/04/14 05:45:57;;;;;;;;;;;9.50;99.90;;;;;;5053272;28;19963;-73
2022/04/14 05:48:23;;;;;;;;;;;9.60;99.90;;;;;;5054425;28;19915;-73
2022/04/14 05:50:49;;;;;;;;;;;9.80;99.90;;;;;;5054146;28;19935;-73
2022/04/14 05:53:16;;;;;;;;;;;9.90;99.90;;;;;;5053802;28;19913;-74
2022/04/14 05:55:41;;;;;;;;;;;10.00;99.90;;;;;;5054177;28;19963;-73
2022/04/14 05:58:07;;;;;;;;;;;10.10;99.90;;;;;;5054109;28;19948;-74
2022/04/14 06:00:34;;;;;;;;;;;10.10;99.90;;;;;;5053998;28;19908;-74
2022/04/14 06:03:00;;;;;;;;;;;10.10;99.90;;;;;;5053933;28;19955;-73
2022/04/14 06:05:26;;;;;;;;;;;10.10;99.90;;;;;;5053904;28;19909;-73
2022/04/14 06:07:51;;;;;;;;;;;10.30;99.90;;;;;;5054038;28;19936;-73
2022/04/14 06:10:17;;;;;;;;;;;10.40;99.90;;;;;;5053684;28;20659;-73
2022/04/14 06:12:42;;;;;;;;;;;10.50;99.90;;;;;;5054511;28;19913;-73
2022/04/14 06:15:08;;;;;;;;;;;10.70;99.90;;;;;;5054198;28;19913;-73
2022/04/14 06:17:34;;;;;;;;;;;10.80;99.90;;;;;;5054787;28;19947;-74
2022/04/14 06:19:59;;;;;;;;;;;11.00;99.90;;;;;;5054432;28;19909;-74
2022/04/14 06:22:25;;;;;;;;;;;11.20;99.90;;;;;;5054160;28;19963;-74
2022/04/14 06:24:50;;;;;;;;;;;11.50;99.90;;;;;;5047714;28;19909;-74
2022/04/14 06:27:16;;;;;;;;;;;11.50;99.90;;;;;;5053886;28;19909;-74
2022/04/14 06:29:41;;;;;;;;;;;11.70;99.90;;;;;;5054395;28;19913;-74
2022/04/14 06:32:07;;;;;;;;;;;11.70;99.90;;;;;;5054068;28;20388;-74
2022/04/14 06:34:33;;;;;;;;;;;11.80;99.90;;;;;;5053945;28;19948;-74
2022/04/14 06:36:58;;;;;;;;;;;11.90;99.90;;;;;;5048003;28;19999;-74
2022/04/14 06:39:23;;;;;;;;;;;12.10;99.90;;;;;;5054917;28;20285;-74
2022/04/14 06:41:49;;;;;;;;;;;12.20;99.90;;;;;;5053357;28;19913;-74
2022/04/14 06:44:14;;;;;;;;;;;12.20;99.90;;;;;;5054270;28;20318;-74
2022/04/14 06:46:40;;;;;;;;;;;12.20;99.90;;;;;;5054817;28;19909;-74
2022/04/14 06:49:06;;;;;;;;;;;12.30;99.90;;;;;;5052029;28;19909;-74
2022/04/14 06:51:31;;;;;;;;;;;12.40;99.90;;;;;;5053798;28;19913;-75
2022/04/14 06:53:57;;;;;;;;;;;12.50;99.90;;;;;;5054765;28;19931;-75
2022/04/14 06:56:22;;;;;;;;;;;12.70;99.90;;;;;;5055296;28;19995;-74
2022/04/14 06:58:48;;;;;;;;;;;12.80;99.90;;;;;;5054718;28;19915;-74
2022/04/14 07:01:14;;;;;;;;;;;12.80;99.90;;;;;;5054604;28;19909;-75
2022/04/14 07:03:39;;;;;;;;;;;12.90;99.90;;;;;;5054457;28;20000;-74
2022/04/14 07:06:05;;;;;;;;;;;13.00;99.90;;;;;;5054304;28;20350;-75
2022/04/14 07:08:33;;;;;;;;;;;13.10;99.90;;;;;;5053129;28;19970;-74
2022/04/14 07:10:59;;;;;;;;;;;13.30;99.90;;;;;;5054161;28;19913;-74
2022/04/14 07:13:24;;;;;;;;;;;13.40;99.90;;;;;;5054382;28;20251;-74
2022/04/14 07:15:50;;;;;;;;;;;13.50;99.90;;;;;;5052719;28;19975;-74
2022/04/14 07:18:16;;;;;;;;;;;13.70;99.90;;;;;;5052533;28;20394;-74
2022/04/14 07:20:44;;;;;;;;;;;13.90;99.90;;;;;;5051305;28;19916;-75
2022/04/14 07:23:10;;;;;;;;;;;14.10;99.90;;;;;;5054125;28;19909;-73
2022/04/14 07:25:35;;;;;;;;;;;14.90;99.90;;;;;;5054129;28;19934;-74
2022/04/14 07:28:01;;;;;;;;;;;15.80;99.90;;;;;;5054169;28;19916;-74
2022/04/14 07:30:27;;;;;;;;;;;16.60;99.90;;;;;;5053903;28;19921;-74
2022/04/14 07:32:53;;;;;;;;;;;17.00;99.90;;;;;;5053861;28;19909;-74
2022/04/14 07:35:21;;;;;;;;;;;17.90;99.90;;;;;;5051377;28;19909;-74
2022/04/14 07:37:47;;;;;;;;;;;17.90;99.90;;;;;;5053600;28;19916;-74
2022/04/14 07:40:13;;;;;;;;;;;18.40;99.90;;;;;;5053615;28;20324;-74
2022/04/14 07:42:39;;;;;;;;;;;18.80;99.90;;;;;;5054000;28;19909;-74
2022/04/14 07:45:06;;;;;;;;;;;18.20;98.90;;;;;;5052710;28;19909;-74
2022/04/14 07:47:32;;;;;;;;;;;18.90;98.60;;;;;;5045777;28;20153;-74
2022/04/14 07:49:57;;;;;;;;;;;20.00;96.60;;;;;;5048925;28;19913;-74
2022/04/14 07:52:23;;;;;;;;;;;20.50;95.20;;;;;;5054086;28;19917;-74
2022/04/14 07:54:48;;;;;;;;;;;20.80;94.60;;;;;;5052444;28;19954;-74
2022/04/14 07:57:14;;;;;;;;;;;20.60;93.00;;;;;;5051835;28;19916;-75
2022/04/14 07:59:39;;;;;;;;;;;20.70;92.60;;;;;;5051075;28;20015;-75
2022/04/14 08:02:05;;;;;;;;;;;20.60;93.70;;;;;;5051839;28;20391;-74
2022/04/14 08:04:31;;;;;;;;;;;19.70;94.00;;;;;;5052254;28;20435;-75
2022/04/14 08:06:57;;;;;;;;;;;20.30;93.20;;;;;;5053975;28;19951;-74
2022/04/14 08:09:22;;;;;;;;;;;20.60;92.50;;;;;;5047113;28;19959;-75
2022/04/14 08:11:48;;;;;;;;;;;20.80;92.60;;;;;;5052609;28;19944;-74
2022/04/14 08:14:13;;;;;;;;;;;21.50;92.20;;;;;;5051555;28;19909;-74
2022/04/14 08:16:39;;;;;;;;;;;21.70;90.30;;;;;;5051640;28;19916;-75
2022/04/14 08:19:04;;;;;;;;;;;21.10;91.30;;;;;;5051004;28;20012;-75
2022/04/14 08:21:30;;;;;;;;;;;21.40;90.00;;;;;;5050457;28;19909;-75
2022/04/14 08:23:57;;;;;;;;;;;20.90;91.30;;;;;;5050966;28;19915;-75
2022/04/14 08:26:23;;;;;;;;;;;20.70;91.20;;;;;;5050698;28;19917;-75
2022/04/14 08:28:48;;;;;;;;;;;21.00;91.20;;;;;;5047773;28;19970;-75
2022/04/14 08:31:14;;;;;;;;;;;21.10;91.60;;;;;;5050687;28;19967;-75
2022/04/14 08:33:40;;;;;;;;;;;21.30;90.00;;;;;;5051099;28;19916;-74
2022/04/14 08:36:12;;;;;;;;;;;20.80;90.40;;;;;;5042954;28;19913;-75
2022/04/14 08:38:38;;;;;;;;;;;21.70;90.90;;;;;;5050802;28;20415;-75
2022/04/14 08:41:06;;;;;;;;;;;22.70;89.90;;;;;;5049905;28;19913;-75
2022/04/14 08:43:34;;;;;;;;;;;22.10;87.60;;;;;;5042808;28;19915;-75
2022/04/14 08:46:00;;;;;;;;;;;22.10;88.40;;;;;;5043064;28;20385;-75
2022/04/14 08:48:26;;;;;;;;;;;22.70;87.30;;;;;;5050571;28;19915;-75
2022/04/14 08:50:52;;;;;;;;;;;23.00;86.80;;;;;;5050885;28;20125;-75
2022/04/14 08:53:18;;;;;;;;;;;22.70;84.20;;;;;;5050565;28;19951;-75
2022/04/14 08:55:44;;;;;;;;;;;22.50;83.70;;;;;;5050882;28;19963;-75
2022/04/14 08:58:16;;;;;;;;;;;22.70;85.30;;;;;;5050882;28;19909;-74
2022/04/14 09:00:41;;;;;;;;;;;23.10;81.20;;;;;;5050709;28;19908;-74
2022/04/14 09:03:07;;;;;;;;;;;23.20;82.90;;;;;;5050470;28;20354;-75
2022/04/14 09:05:33;;;;;;;;;;;24.30;80.60;;;;;;5050606;28;19917;-75
2022/04/14 09:07:59;;;;;;;;;;;24.80;77.70;;;;;;5048681;28;19908;-75
2022/04/14 09:10:24;;;;;;;;;;;24.40;77.60;;;;;;5048264;28;20320;-75
2022/04/14 09:12:50;;;;;;;;;;;25.10;75.70;;;;;;5054291;28;19916;-75
2022/04/14 09:15:16;;;;;;;;;;;24.90;76.20;;;;;;5054004;28;19992;-75
2022/04/14 09:17:42;;;;;;;;;;;24.30;74.10;;;;;;5045961;28;20370;-75
2022/04/14 09:20:26;;;;;;;;;;;24.20;78.70;;;;;;5039289;28;19913;-75
2022/04/14 09:23:10;;;;;;;;;;;23.20;75.00;;;;;;5054291;28;19916;-75
2022/04/14 09:25:35;;;;;;;;;;;24.30;74.70;;;;;;5048720;28;19954;-75
2022/04/14 09:28:08;;;;;;;;;;;24.80;74.50;;;;;;5054576;28;19909;-74
2022/04/14 09:30:34;;;;;;;;;;;24.40;70.60;;;;;;5054473;28;19913;-75
2022/04/14 09:32:59;;;;;;;;;;;25.10;71.90;;;;;;5050943;28;19909;-74
2022/04/14 09:35:28;;;;;;;;;;;25.20;71.40;;;;;;5053839;28;19959;-74
2022/04/14 09:38:01;;;;;;;;;;;25.30;69.30;;;;;;5054356;28;19935;-74
2022/04/14 09:40:29;;;;;;;;;;;25.10;70.30;;;;;;5054080;28;19912;-75
2022/04/14 09:42:54;;;;;;;;;;;25.30;70.30;;;;;;5054115;28;19920;-75
2022/04/14 09:45:23;;;;;;;;;;;25.40;69.00;;;;;;5053984;28;19909;-75
2022/04/14 09:47:50;;;;;;;;;;;23.40;72.40;;;;;;5054230;28;19909;-75
2022/04/14 09:50:24;;;;;;;;;;;25.00;70.40;;;;;;5050333;28;20281;-74
2022/04/14 09:52:57;;;;;;;;;;;25.80;69.50;;;;;;5053502;28;19944;-75
2022/04/14 09:55:23;;;;;;;;;;;26.20;68.40;;;;;;5051332;28;19939;-75
2022/04/14 09:58:07;;;;;;;;;;;26.30;66.50;;;;;;5054017;28;20293;-75
2022/04/14 10:00:39;;;;;;;;;;;27.10;66.10;;;;;;5053992;28;19938;-75
2022/04/14 10:03:08;;;;;;;;;;;26.10;65.00;;;;;;5053411;28;19948;-75
2022/04/14 10:05:34;;;;;;;;;;;25.10;67.70;;;;;;5054143;28;20293;-75
2022/04/14 10:08:00;;;;;;;;;;;26.50;66.90;;;;;;5054561;28;19908;-75
2022/04/14 10:10:25;;;;;;;;;;;26.50;67.50;;;;;;5055046;28;19913;-75
2022/04/14 10:13:00;;;;;;;;;;;26.90;65.30;;;;;;5055041;28;19909;-74
2022/04/14 10:15:26;;;;;;;;;;;28.30;63.80;;;;;;5054681;28;19909;-75
2022/04/14 10:17:52;;;;;;;;;;;28.00;64.40;;;;;;5054994;28;19924;-75
2022/04/14 10:20:20;;;;;;;;;;;28.00;63.60;;;;;;5052965;28;20232;-75
2022/04/14 10:22:46;;;;;;;;;;;27.80;61.30;;;;;;5053629;28;19915;-75
2022/04/14 10:25:13;;;;;;;;;;;26.70;64.80;;;;;;5054314;28;20008;-75
2022/04/14 10:27:38;;;;;;;;;;;27.20;63.90;;;;;;5054013;28;19913;-76
2022/04/14 10:30:05;;;;;;;;;;;28.00;60.30;;;;;;5052777;28;20388;-73
2022/04/14 10:32:32;;;;;;;;;;;27.50;63.30;;;;;;5048078;28;20350;-74
2022/04/14 10:34:59;;;;;;;;;;;27.90;62.10;;;;;;5052767;28;19909;-73
2022/04/14 10:37:30;;;;;;;;;;;28.30;60.70;;;;;;5051536;28;19909;-75
2022/04/14 10:39:56;;;;;;;;;;;26.70;64.90;;;;;;5054325;28;20042;-74
2022/04/14 10:42:24;;;;;;;;;;;26.20;63.20;;;;;;5053460;28;19959;-74
2022/04/14 10:44:50;;;;;;;;;;;27.70;65.70;;;;;;5052683;28;19935;-74
2022/04/14 10:47:34;;;;;;;;;;;28.60;60.30;;;;;;5052742;28;19920;-74
2022/04/14 10:50:00;;;;;;;;;;;28.60;59.50;;;;;;5047576;28;20397;-74
2022/04/14 10:52:27;;;;;;;;;;;29.20;59.40;;;;;;5052504;28;20316;-74
2022/04/14 10:54:57;;;;;;;;;;;29.40;59.20;;;;;;5052886;28;19909;-74
2022/04/14 10:57:38;;;;;;;;;;;28.60;60.50;;;;;;5053040;28;19915;-73
2022/04/14 11:00:19;;;;;;;;;;;28.00;58.80;;;;;;5053062;28;20385;-75
2022/04/14 11:03:03;;;;;;;;;;;29.60;57.60;;;;;;5052437;28;20082;-75
2022/04/14 11:05:43;;;;;;;;;;;29.50;57.10;;;;;;5046531;28;19909;-74
2022/04/14 11:08:29;;;;;;;;;;;29.60;56.40;;;;;;5047720;28;19909;-74
2022/04/14 11:11:07;;;;;;;;;;;26.50;61.20;;;;;;5049218;28;20027;-74
2022/04/14 11:13:51;;;;;;;;;;;28.20;60.90;;;;;;5049244;28;20376;-73
2022/04/14 11:16:35;;;;;;;;;;;29.00;59.70;;;;;;5046906;28;19912;-74
2022/04/14 11:19:18;;;;;;;;;;;30.20;57.30;;;;;;5051354;28;20011;-74
2022/04/14 11:21:59;;;;;;;;;;;29.90;55.40;;;;;;5051563;28;20282;-74
2022/04/14 11:24:37;;;;;;;;;;;29.70;56.80;;;;;;5046814;28;19916;-74
2022/04/14 11:27:09;;;;;;;;;;;27.20;60.60;;;;;;5052421;28;19972;-74
2022/04/14 11:29:34;;;;;;;;;;;28.00;59.00;;;;;;5052247;28;19962;-74
2022/04/14 11:32:00;;;;;;;;;;;27.80;57.20;;;;;;5050795;28;20391;-74
2022/04/14 11:34:32;;;;;;;;;;;28.00;58.60;;;;;;5050647;28;19920;-74
2022/04/14 11:36:59;;;;;;;;;;;27.80;56.90;;;;;;5054234;28;19909;-74
2022/04/14 11:39:25;;;;;;;;;;;23.80;65.40;;;;;;5052397;28;19909;-74
2022/04/14 11:41:54;;;;;;;;;;;23.10;70.10;;;;;;5053132;28;19959;-74
2022/04/14 11:44:34;;;;;;;;;;;22.00;70.50;;;;;;5052390;28;19996;-74
2022/04/14 11:47:04;;;;;;;;;;;21.80;72.20;;;;;;5052670;28;19909;-74
2022/04/14 11:49:34;;;;;;;;;;;21.40;71.90;;;;;;5053004;28;19909;-74
2022/04/14 11:52:00;;;;;;;;;;;23.50;68.60;;;;;;5052146;28;19914;-75
2022/04/14 11:54:29;;;;;;;;;;;26.20;63.50;;;;;;5050991;28;20397;-75
2022/04/14 11:56:58;;;;;;;;;;;26.20;63.30;;;;;;5052950;28;19924;-75
2022/04/14 11:59:34;;;;;;;;;;;23.10;70.00;;;;;;5053130;28;19912;-75
2022/04/14 12:02:00;;;;;;;;;;;23.20;70.60;;;;;;5051403;28;19909;-75
2022/04/14 12:04:26;;;;;;;;;;;23.20;70.30;;;;;;5053552;28;19912;-75
2022/04/14 12:06:55;;;;;;;;;;;23.70;69.90;;;;;;5053603;28;19970;-75
2022/04/14 12:09:21;;;;;;;;;;;23.90;69.60;;;;;;5053816;28;19909;-75
2022/04/14 12:11:47;;;;;;;;;;;24.20;69.10;;;;;;5053748;28;19963;-75
2022/04/14 12:14:13;;;;;;;;;;;26.10;66.20;;;;;;5051030;28;20399;-75
2022/04/14 12:16:48;;;;;;;;;;;25.60;66.00;;;;;;5053357;28;20325;-75
2022/04/14 12:19:14;;;;;;;;;;;24.00;68.30;;;;;;5048366;28;19972;-75
2022/04/14 12:21:40;;;;;;;;;;;23.10;72.60;;;;;;5052266;28;19944;-74
2022/04/14 12:24:05;;;;;;;;;;;21.50;74.00;;;;;;5056365;28;19916;-75
2022/04/14 12:26:35;;;;;;;;;;;21.30;76.60;;;;;;5053894;28;19909;-75
2022/04/14 12:29:01;;;;;;;;;;;22.20;76.30;;;;;;5047862;28;19909;-75
2022/04/14 12:31:28;;;;;;;;;;;21.90;74.80;;;;;;5050578;28;19919;-75
2022/04/14 12:33:57;;;;;;;;;;;21.10;77.00;;;;;;5052599;28;19913;-74
2022/04/14 12:36:36;;;;;;;;;;;21.40;76.90;;;;;;5050952;28;19913;-74
2022/04/14 12:39:05;;;;;;;;;;;20.90;78.20;;;;;;5051144;28;19938;-75
2022/04/14 12:41:35;;;;;;;;;;;20.70;76.50;;;;;;5050875;28;19909;-75
2022/04/14 12:44:01;;;;;;;;;;;20.80;77.90;;;;;;5050815;28;19913;-75
2022/04/14 12:46:27;;;;;;;;;;;21.10;76.70;;;;;;5050410;28;20293;-74
2022/04/14 12:49:06;;;;;;;;;;;21.30;77.20;;;;;;5050709;28;20388;-75
2022/04/14 12:51:33;;;;;;;;;;;20.80;78.30;;;;;;5047324;28;19920;-75
2022/04/14 12:54:01;;;;;;;;;;;21.30;80.60;;;;;;5050666;28;19955;-74
2022/04/14 12:56:27;;;;;;;;;;;21.10;79.90;;;;;;5050928;28;19908;-75
2022/04/14 12:59:12;;;;;;;;;;;20.90;79.40;;;;;;5050771;28;20390;-74
2022/04/14 13:02:03;;;;;;;;;;;21.20;76.00;;;;;;5052174;28;19913;-74
2022/04/14 13:04:36;;;;;;;;;;;21.10;77.60;;;;;;5051823;28;19909;-74
2022/04/14 13:07:05;;;;;;;;;;;20.80;78.20;;;;;;5053988;28;19909;-74
2022/04/14 13:09:31;;;;;;;;;;;20.80;78.90;;;;;;5054286;28;19909;-75
2022/04/14 13:11:56;;;;;;;;;;;20.30;79.40;;;;;;5053448;28;19917;-75
2022/04/14 13:14:23;;;;;;;;;;;20.80;80.50;;;;;;5050919;28;20029;-75
2022/04/14 13:16:49;;;;;;;;;;;20.50;80.60;;;;;;5054878;28;19915;-75
2022/04/14 13:19:15;;;;;;;;;;;20.10;81.10;;;;;;5052104;28;20369;-75
2022/04/14 13:21:41;;;;;;;;;;;20.00;82.00;;;;;;5052159;28;19915;-75
2022/04/14 13:24:07;;;;;;;;;;;19.80;82.50;;;;;;5049139;28;19916;-74
2022/04/14 13:26:32;;;;;;;;;;;19.50;84.00;;;;;;5051602;28;19913;-75
2022/04/14 13:28:58;;;;;;;;;;;19.70;83.90;;;;;;5051986;28;20008;-74
2022/04/14 13:31:23;;;;;;;;;;;19.60;83.10;;;;;;5051688;28;20351;-74
2022/04/14 13:33:49;;;;;;;;;;;20.20;84.00;;;;;;5052026;28;19987;-75
2022/04/14 13:36:14;;;;;;;;;;;19.80;82.20;;;;;;5052460;28;20000;-74
2022/04/14 13:38:40;;;;;;;;;;;19.90;82.30;;;;;;5052020;28;20145;-74
2022/04/14 13:41:05;;;;;;;;;;;20.10;82.80;;;;;;5051307;28;20328;-74
2022/04/14 13:43:31;;;;;;;;;;;20.50;84.40;;;;;;5047260;28;19953;-74
2022/04/14 13:45:56;;;;;;;;;;;20.90;81.60;;;;;;5051121;28;20395;-74
2022/04/14 13:48:22;;;;;;;;;;;21.20;80.70;;;;;;5051857;28;19908;-74
2022/04/14 13:50:48;;;;;;;;;;;21.30;81.20;;;;;;5051424;28;19947;-75
2022/04/14 13:53:13;;;;;;;;;;;21.30;81.80;;;;;;5042783;28;20009;-73
2022/04/14 13:55:39;;;;;;;;;;;21.60;80.80;;;;;;5050842;28;20014;-75
2022/04/14 13:58:05;;;;;;;;;;;22.10;80.40;;;;;;5052474;28;19916;-73
2022/04/14 14:00:31;;;;;;;;;;;21.10;81.20;;;;;;5054853;28;19944;-74
2022/04/14 14:02:56;;;;;;;;;;;20.90;79.80;;;;;;5054892;28;19916;-74
2022/04/14 14:05:22;;;;;;;;;;;21.10;79.50;;;;;;5054587;28;19951;-75
2022/04/14 14:07:48;;;;;;;;;;;21.10;79.90;;;;;;5052553;28;19917;-76
2022/04/14 14:10:14;;;;;;;;;;;21.10;80.10;;;;;;5052158;28;19923;-75
2022/04/14 14:12:40;;;;;;;;;;;21.10;79.20;;;;;;5054304;28;19995;-75
2022/04/14 14:15:08;;;;;;;;;;;22.10;77.40;;;;;;5054559;28;20003;-74
2022/04/14 14:17:38;;;;;;;;;;;22.10;78.90;;;;;;5054631;28;19917;-75
2022/04/14 14:20:10;;;;;;;;;;;21.10;81.70;;;;;;5044785;28;19920;-75
2022/04/14 14:22:36;;;;;;;;;;;21.00;81.80;;;;;;5053749;28;20000;-75